METAR stanice u blizini

 

LYBE - Beograd / Surčin, Srbija
Ažurirano: 17/06/2019 12:00
Partly Cloudy
Partly Cloudy
 Pravac vetra Z
Vetar: Z 13 km/h
Temperatura: 25°C
Tačka rose: 18°C
Vlažnost: 65%
Pritisak: 1017 hPa
Oblaci: Partly Cloudy
Vidljivost: 10 km
Cloud details: Partly Cloudy 823 m
2019/06/17 10:00 LYBE 171000Z 27007KT 230V300 9999 SCT027 25/18 Q1017 NOSIG
LYBT - Beograd / Batajnica, Srbija
Ažurirano: 17/06/2019 12:00
Partly Cloudy
Partly Cloudy
 Pravac vetra JJZ
Vetar: JJZ 11 km/h
Temperatura: 25°C
Tačka rose: 19°C
Vlažnost: 69%
Pritisak: 1017 hPa
Oblaci: Partly Cloudy
Vidljivost: 10 km
Cloud details: Partly Cloudy 762 m
2019/06/17 10:00 LYBT 171000Z 20006KT 150V250 9999 SCT025 25/19 Q1017 NOSIG
LYVR - Vršac, Srbija
Ažurirano: 17/06/2019 12:00
Partly Cloudy
Partly Cloudy
 Pravac vetra Z
Vetar: Z 9 km/h
Temperatura: 25°C
Tačka rose: 19°C
Vlažnost: 69%
Pritisak: 1017 hPa
Oblaci: Partly Cloudy
Vidljivost: 10 km
Cloud details: Few Clouds 701 m
Partly Cloudy 792 m
2019/06/17 10:00 LYVR 171000Z 26005KT 190V310 9999 FEW023TCU SCT026 25/19 Q1017 NOSIG
 
LYKV - Lađevci, Srbija
Ažurirano: 17/06/2019 12:00
Mostly Cloudy
Mostly Cloudy
 Pravac vetra S
Vetar: S 7 km/h
Temperatura: 24°C
Tačka rose: 18°C
Vlažnost: 69%
Pritisak: 1017 hPa
Oblaci: Mostly Cloudy
Vidljivost: 10 km
Cloud details: Mostly Cloudy 1006 m
2019/06/17 10:00 LYKV 171000Z 01004KT 260V050 9999 BKN033 24/18 Q1017 NOSIG
LYNI - Niš, Srbija
Ažurirano: 17/06/2019 12:00
Few Clouds
Few Clouds
 Pravac vetra SSZ
Vetar: SSZ 28 km/h
Temperatura: 25°C
Tačka rose: 18°C
Vlažnost: 65%
Pritisak: 1016 hPa
Oblaci: Few Clouds
Vidljivost: 10 km
Cloud details: Few Clouds 914 m
2019/06/17 10:00 LYNI 171000Z 33015KT 290V020 9999 FEW030 25/18 Q1016 NOSIG
BKPR - Priština, Srbija
Ažurirano: 17/06/2019 12:30
Partly Cloudy
Partly Cloudy
 Pravac vetra S
Vetar: S 17 km/h
Temperatura: 25°C
Tačka rose: 15°C
Vlažnost: 54%
Pritisak: 1017 hPa
Oblaci: Partly Cloudy
Vidljivost: 10 km
Cloud details: Partly Cloudy 1219 m
2019/06/17 10:30 BKPR 171030Z 35009KT 320V020 9999 SCT040 25/15 Q1017 NOSIG
 
LHPP - Pecs / Pogany, Hungary
Ažurirano: 17/06/2019 11:45
Partly Cloudy
Partly Cloudy
 Pravac vetra SSZ
Vetar: SSZ 6 km/h
Temperatura: 24°C
Tačka rose: 17°C
Vlažnost: 65%
Pritisak: 1019 hPa
Oblaci: Partly Cloudy
Vidljivost: 10 km
Cloud details: Mostly Cloudy 914 m
Partly Cloudy 2530 m
2019/06/17 09:45 LHPP 170945Z 34003KT 9999 BKN030TCU SCT083 24/17 Q1019
LHUD - Szeged, Hungary
Ažurirano: 17/06/2019 11:45
Mostly Cloudy
Mostly Cloudy
 Pravac vetra SI
Vetar: SI 11 km/h
Temperatura: 25°C
Tačka rose: 18°C
Vlažnost: 65%
Pritisak: 1018 hPa
Oblaci: Mostly Cloudy
Vidljivost: 10 km
Cloud details: Partly Cloudy 1006 m
Partly Cloudy 2530 m
Mostly Cloudy 6096 m
2019/06/17 09:45 LHUD 170945Z 04006KT 9999 SCT033 SCT083 BKN200 25/18 Q1018
LRTR - Timisoara, Romania
Ažurirano: 17/06/2019 12:00
Partly Cloudy
Partly Cloudy
 Pravac vetra Z
Vetar: Z 9 km/h
Temperatura: 26°C
Tačka rose: 21°C
Vlažnost: 74%
Pritisak: 1017 hPa
Oblaci: Partly Cloudy
Vidljivost: 10 km
Cloud details: Partly Cloudy 762 m
2019/06/17 10:00 LRTR 171000Z 27005KT 9999 SCT025 26/21 Q1017 NOSIG
 
LRCV - Craiova, Romania
Ažurirano: 17/06/2019 12:00
Few Clouds
Few Clouds
 Pravac vetra JI
Vetar: JI 6 km/h
Temperatura: 30°C
Heat Index: 31°C
Tačka rose: 18°C
Vlažnost: 49%
Pritisak: 1015 hPa
Oblaci: Few Clouds
Vidljivost: 10 km
Cloud details: Few Clouds 1372 m
2019/06/17 10:00 LRCV 171000Z 14003KT 050V220 9999 FEW045 30/18 Q1015
LBSF - Sofia, Bulgaria
Ažurirano: 17/06/2019 12:30
Mostly Cloudy
Mostly Cloudy
 Pravac vetra varies
Vetar: varies 9 km/h
Temperatura: 28°C
Heat Index: 28°C
Tačka rose: 14°C
Vlažnost: 42%
Pritisak: 1015 hPa
Oblaci: Mostly Cloudy
Vidljivost: 10 km
Cloud details: Few Clouds 1219 m
Mostly Cloudy 1433 m
2019/06/17 10:30 LBSF 171030Z VRB05KT 9999 FEW040CB BKN047 28/14 Q1015 TEMPO TSRA FEW030CB
LWSK - Skoplje, Makedonija
Ažurirano: 17/06/2019 12:00
Few Clouds
Few Clouds
 Pravac vetra varies
Vetar: varies 6 km/h
Temperatura: 28°C
Heat Index: 29°C
Tačka rose: 18°C
Vlažnost: 55%
Pritisak: 1014 hPa
Oblaci: Few Clouds
Vidljivost: 10 km
Cloud details: Few Clouds 1829 m
2019/06/17 10:00 LWSK 171000Z VRB03KT 9999 FEW060 28/18 Q1014 NOSIG
 
LYPG - Podgorica, Crna Gora
Ažurirano: 17/06/2019 12:00
Few Clouds
Few Clouds
 Pravac vetra JJI
Vetar: JJI 7 km/h
Temperatura: 31°C
Heat Index: 32°C
Tačka rose: 17°C
Vlažnost: 43%
Pritisak: 1012 hPa
Oblaci: Few Clouds
Vidljivost: 10 km
Cloud details: Few Clouds 1219 m
2019/06/17 10:00 LYPG 171000Z 15004KT 060V230 9999 FEW040 31/17 Q1012 NOSIG
LQSA - Sarajevo, Bosna i Hercegovina
Ažurirano: 17/06/2019 12:00
Partly Cloudy
Partly Cloudy
 Pravac vetra SSZ
Vetar: SSZ 7 km/h
Temperatura: 22°C
Tačka rose: 15°C
Vlažnost: 65%
Pritisak: 1019 hPa
Oblaci: Partly Cloudy
Vidljivost: 10 km
Cloud details: Few Clouds 914 m
Partly Cloudy 1524 m
2019/06/17 10:00 LQSA 171000Z 33004KT 280V030 9999 FEW030 SCT050 22/15 Q1019 NOSIG
LDOS - Osijek, Hrvatksa
Ažurirano: 17/06/2019 12:30
Few Clouds
Few Clouds
 Pravac vetra SZ
Vetar: SZ 13 km/h
Temperatura: 23°C
Tačka rose: 17°C
Vlažnost: 69%
Pritisak: 1017 hPa
Oblaci: Few Clouds
Vidljivost: 10 km
Cloud details: Few Clouds 1006 m
2019/06/17 10:30 LDOS 171030Z 31007KT 9999 FEW033 23/17 Q1017